Flight Track Log - Related Links

Times and Time Zones

All times are in EDT time to prevent confusion due to time zone crossing. See the DAL3982 flight status page for this flight to view local times or setup timezone preferences in your user account.

Time Position Orientation Groundspeed Altitude Reporting Facility
EDT Latitude Longitude Course Direction KTS MPH feet Rate Location/Type
Mon 05:57:52 AM 46.2000 -84.4500 192° South 170 196 1,700  Level Toronto Center
Mon 05:58:52 AM 46.1500 -84.4500 180° South 200 230 3,900 2,000 Climbing Toronto Center
Mon 05:59:52 AM 46.0833 -84.4333 170° South 250 288 5,700 2,250 Climbing Toronto Center
Mon 06:00:52 AM 46.0000 -84.4333 180° South 280 322 8,400 2,500 Climbing Toronto Center
Mon 06:01:52 AM 45.9167 -84.4333 180° South 300 345 10,700 1,700 Climbing Toronto Center
Mon 06:02:00 AM 45.7922 -84.6007 192° South  Level FlightAware Approximate
Mon 06:02:52 AM 45.8167 -84.4167 173° South 350 403 11,800  Level Toronto Center
Mon 06:03:00 AM 45.7007 -84.6281 192° South  Level FlightAware Approximate
Mon 06:03:52 AM 45.7000 -84.3833 169° South 380 437 13,400  Level Toronto Center
Mon 06:04:52 AM 45.6000 -84.3833 180° South 400 460 14,800 1,500 Climbing Toronto Center
Mon 06:05:52 AM 45.4833 -84.3667 174° South 410 472 16,400 1,550 Climbing Toronto Center
Mon 06:06:52 AM 45.3667 -84.3333 169° South 420 483 17,900 1,500 Climbing Toronto Center
Mon 06:07:52 AM 45.2500 -84.3167 174° South 420 483 19,400 1,250 Climbing Toronto Center
Mon 06:08:52 AM 45.1333 -84.3167 180° South 420 483 20,400 800 Climbing Toronto Center
Mon 06:09:52 AM 45.0167 -84.2833 169° South 430 495 21,000 300 Climbing Toronto Center
Mon 06:10:52 AM 44.8833 -84.2667 175° South 460 529 21,000  Level Toronto Center
Mon 06:11:52 AM 44.7500 -84.2667 180° South 480 552 21,000  Level Toronto Center
Mon 06:12:52 AM 44.6167 -84.2333 170° South 480 552 21,000  Level Toronto Center
Mon 06:13:52 AM 44.4833 -84.2167 175° South 480 552 21,000  Level Toronto Center
Mon 06:14:52 AM 44.3500 -84.1833 170° South 480 552 21,000  Level Toronto Center
Mon 06:15:52 AM 44.2333 -84.1667 174° South 480 552 21,000  Level Toronto Center
Mon 06:16:52 AM 44.1000 -84.1667 180° South 480 552 21,000  Level Toronto Center
Mon 06:17:52 AM 43.9667 -84.1333 170° South 480 552 21,000  Level Toronto Center
Mon 06:18:52 AM 43.8333 -84.1167 175° South 480 552 21,000  Level Toronto Center
Mon 06:19:52 AM 43.7000 -84.1000 175° South 480 552 21,000  Level Toronto Center
Mon 06:20:52 AM 43.5667 -84.0667 170° South 480 552 21,000  Level Toronto Center
Mon 06:21:52 AM 43.4333 -84.0500 175° South 480 552 21,000  Level Toronto Center
Mon 06:22:52 AM 43.3167 -83.9667 153° Southeast 490 564 21,000 -750 Level Toronto Center
Mon 06:23:52 AM 43.1833 -83.9167 165° South 480 552 19,500 -2,050 Descending Toronto Center
Mon 06:24:52 AM 43.0667 -83.8500 157° South 460 529 16,900 -2,621 Descending Toronto Center
Mon 06:25:35 AM 42.9897 -83.8275 168° South 442 509 15,000 -2,649 Descending Cleveland Center
Mon 06:26:09 AM 42.9303 -83.7933 157° South 443 510 13,500 -2,203 Descending Cleveland Center
Mon 06:26:54 AM 42.8544 -83.7469 156° South 398 458 12,100 -750 Descending Cleveland Center
Mon 06:28:09 AM 42.7272 -83.6725 157° South 411 473 12,000 -311 Descending Cleveland Center
Mon 06:29:09 AM 42.6500 -83.6011 146° Southeast 391 450 11,400 -950 Descending Cleveland Center
Mon 06:30:09 AM 42.5831 -83.5217 139° Southeast 349 402 10,100 -1,714 Descending Cleveland Center
Mon 06:31:08 AM 42.5164 -83.4397 138° Southeast 292 336 8,000 -2,050 Descending Cleveland Center
Mon 06:32:09 AM 42.4578 -83.3667 137° Southeast 292 336 6,000 -1,785 Descending Cleveland Center
Mon 06:33:09 AM 42.4008 -83.3078 143° Southeast 295 339 4,400 -1,550 Descending Cleveland Center
Mon 06:34:09 AM 42.3344 -83.2939 171° South 256 295 2,900 -1,150 Descending Cleveland Center
Mon 06:35:09 AM 42.2858 -83.3225 204° Southwest 209 241 2,100 -836 Descending Cleveland Center
Mon 06:36:11 AM 42.2475 -83.3517 209° Southwest 131 151 1,200 -871 Descending Cleveland Center

Login

Don't have an account? Register now (free) for customized features, flight alerts, and more!